This is the latest recevied weather packets stored in our database for station/object K1FFK-1. If no packets are shown the sender has not sent any weather packets the latest 10 day(s).
| Time | Temp. | Humidity | Pressure | Rain* | Wind** | Luminosity | Snow |
|---|---|---|---|---|---|---|---|
| 1777936894 | 11.11° C | 58% | 1012.6 hPa | 0 mm | - | - | - |
| 1777936294 | 11.67° C | 55% | 1012.6 hPa | 0 mm | - | - | - |
| 1777935693 | 11.67° C | 54% | 1012.4 hPa | 0 mm | - | - | - |
| 1777935094 | 12.78° C | 51% | 1012.4 hPa | 0 mm | - | - | - |
| 1777934494 | 12.22° C | 52% | 1012.2 hPa | 0 mm | - | - | - |
| 1777933894 | 12.78° C | 52% | 1012.5 hPa | 0 mm | - | - | - |
| 1777933294 | 12.78° C | 50% | 1012.3 hPa | 0 mm | - | - | - |
| 1777932694 | 12.78° C | 50% | 1012.4 hPa | 0 mm | - | - | - |
| 1777932094 | 13.33° C | 50% | 1012.5 hPa | 0 mm | - | - | - |
| 1777931494 | 13.33° C | 48% | 1012.5 hPa | 0 mm | - | - | - |
| 1777930894 | 12.78° C | 52% | 1012.2 hPa | 0 mm | - | - | - |
| 1777930294 | 13.33° C | 50% | 1012.5 hPa | 0 mm | - | - | - |
| 1777929693 | 12.78° C | 52% | 1012.5 hPa | 0 mm | - | - | - |
| 1777929094 | 12.78° C | 52% | 1012.5 hPa | 0 mm | - | - | - |
| 1777928494 | 12.22° C | 53% | 1012.4 hPa | 0 mm | - | - | - |
| 1777927894 | 12.78° C | 49% | 1012.5 hPa | 0 mm | - | - | - |
| 1777927294 | 12.22° C | 51% | 1012.3 hPa | 0 mm | - | - | - |
| 1777926694 | 12.22° C | 52% | 1012.5 hPa | 0 mm | - | - | - |
| 1777926094 | 13.33° C | 50% | 1012.5 hPa | 0 mm | - | - | - |
| 1777925493 | 13.33° C | 50% | 1012.6 hPa | 0 mm | - | - | - |
| 1777924894 | 12.78° C | 51% | 1012.5 hPa | 0 mm | - | - | - |
| 1777924293 | 13.33° C | 48% | 1012.5 hPa | 0 mm | - | - | - |
| 1777923693 | 12.78° C | 52% | 1012.6 hPa | 0 mm | - | - | - |
| 1777923093 | 12.22° C | 51% | 1012.7 hPa | 0 mm | - | - | - |
| 1777922493 | 12.22° C | 53% | 1012.7 hPa | 0 mm | - | - | - |
* Rain latest hour (hover to see other rain measurements)
** Current wind speed in m/s (hover to see current wind gust speed)